createdAt,value
2023-04-23T00:02:19.656Z,17.03
2023-04-23T00:04:54.335Z,16.81
2023-04-23T00:07:24.882Z,16.72
2023-04-23T00:10:00.442Z,16.60
2023-04-23T00:12:32.004Z,16.53
2023-04-23T00:15:02.775Z,16.59
2023-04-23T00:17:33.425Z,16.51
2023-04-23T00:20:03.178Z,16.50
2023-04-23T00:22:33.812Z,16.38
2023-04-23T00:25:06.519Z,16.36
2023-04-23T00:27:36.300Z,16.20
2023-04-23T00:30:07.081Z,15.98
2023-04-23T00:32:36.942Z,16.26
2023-04-23T00:35:07.644Z,16.11
2023-04-23T00:37:37.419Z,16.08
2023-04-23T00:40:11.820Z,16.02
2023-04-23T00:42:42.417Z,15.92
2023-04-23T00:45:13.000Z,15.89
2023-04-23T00:47:43.811Z,15.75
2023-04-23T00:50:13.895Z,15.68
2023-04-23T00:52:43.696Z,15.48
2023-04-23T00:55:16.392Z,15.65
2023-04-23T00:57:46.452Z,15.58
2023-04-23T01:00:18.059Z,15.41
2023-04-23T01:02:48.525Z,15.61
2023-04-23T01:05:20.282Z,15.53
2023-04-23T01:07:50.936Z,15.50
2023-04-23T01:10:23.852Z,15.37
2023-04-23T01:12:53.637Z,15.58
2023-04-23T01:15:23.692Z,15.51
2023-04-23T01:17:53.885Z,15.57
2023-04-23T01:20:23.723Z,15.66
2023-04-23T01:22:56.475Z,15.68
2023-04-23T01:25:26.294Z,15.80
2023-04-23T01:27:56.125Z,15.74
2023-04-23T01:30:27.213Z,15.66
2023-04-23T01:32:58.035Z,15.31
2023-04-23T01:35:29.001Z,15.13
2023-04-23T01:38:04.438Z,15.26
2023-04-23T01:40:34.238Z,15.23
2023-04-23T01:43:04.453Z,15.30
2023-04-23T01:45:34.329Z,15.33
2023-04-23T01:48:04.465Z,15.28
2023-04-23T01:50:34.546Z,15.15
2023-04-23T01:53:06.919Z,15.17
2023-04-23T01:55:40.674Z,14.89
2023-04-23T01:58:10.525Z,15.04
2023-04-23T02:00:40.260Z,14.89
2023-04-23T02:03:10.173Z,14.98
2023-04-23T02:05:41.714Z,15.08
2023-04-23T02:08:14.402Z,15.00
2023-04-23T02:10:44.240Z,15.00
2023-04-23T02:13:14.943Z,14.99
2023-04-23T02:15:45.376Z,14.90
2023-04-23T02:18:15.337Z,14.91
2023-04-23T02:20:45.237Z,14.88
2023-04-23T02:23:17.701Z,14.93
2023-04-23T02:25:47.471Z,14.88
2023-04-23T02:28:17.207Z,14.69
2023-04-23T02:30:48.085Z,14.64
2023-04-23T02:33:18.474Z,14.50
2023-04-23T02:35:48.325Z,14.53
2023-04-23T02:38:21.415Z,14.59
2023-04-23T02:40:52.669Z,14.57
2023-04-23T02:43:22.432Z,14.61
2023-04-23T02:45:52.194Z,14.63
2023-04-23T02:48:22.512Z,14.46
2023-04-23T02:50:52.496Z,14.58
2023-04-23T02:53:24.899Z,14.44
2023-04-23T02:55:54.662Z,14.38
2023-04-23T02:58:24.437Z,14.38
2023-04-23T03:00:56.692Z,14.35
2023-04-23T03:03:32.057Z,14.35
2023-04-23T03:06:04.325Z,14.25
2023-04-23T03:08:37.028Z,14.24
2023-04-23T03:11:06.879Z,14.12
2023-04-23T03:13:36.688Z,14.12
2023-04-23T03:16:06.750Z,13.93
2023-04-23T03:18:37.415Z,14.04
2023-04-23T03:21:07.383Z,13.89
2023-04-23T03:23:39.747Z,13.99
2023-04-23T03:26:09.525Z,14.05
2023-04-23T03:28:39.278Z,14.12
2023-04-23T03:31:09.083Z,14.09
2023-04-23T03:33:38.896Z,14.00
2023-04-23T03:36:09.025Z,13.93
2023-04-23T03:38:41.394Z,13.74
2023-04-23T03:41:11.371Z,13.72
2023-04-23T03:43:43.974Z,13.80
2023-04-23T03:46:21.651Z,13.74
2023-04-23T03:48:51.544Z,13.45
2023-04-23T03:51:28.337Z,13.73
2023-04-23T03:54:00.919Z,13.68
2023-04-23T03:56:38.360Z,13.59
2023-04-23T03:59:23.871Z,13.65
2023-04-23T04:01:56.087Z,13.66
2023-04-23T04:04:28.823Z,13.71
2023-04-23T04:07:00.540Z,13.75
2023-04-23T04:09:33.366Z,13.85
2023-04-23T04:12:04.683Z,13.74
2023-04-23T04:14:34.557Z,13.49
2023-04-23T04:17:04.272Z,13.60
2023-04-23T04:19:34.031Z,13.70
2023-04-23T04:22:04.167Z,13.56
2023-04-23T04:24:36.561Z,13.58
2023-04-23T04:27:07.552Z,13.63
2023-04-23T04:29:37.377Z,13.48
2023-04-23T04:32:07.140Z,13.64
2023-04-23T04:34:38.538Z,13.79
2023-04-23T04:37:10.156Z,13.65
2023-04-23T04:39:42.857Z,13.84
2023-04-23T04:42:13.243Z,13.81
2023-04-23T04:44:43.895Z,13.65
2023-04-23T04:47:13.747Z,13.83
2023-04-23T04:49:43.450Z,13.82
2023-04-23T04:52:13.204Z,13.58
2023-04-23T04:54:45.523Z,13.64
2023-04-23T04:57:15.234Z,13.78
2023-04-23T04:59:44.988Z,13.74
2023-04-23T05:02:14.822Z,13.76
2023-04-23T05:04:44.751Z,13.74
2023-04-23T05:07:14.570Z,13.76
2023-04-23T05:09:46.944Z,13.83
2023-04-23T05:12:16.691Z,13.83
2023-04-23T05:14:46.746Z,13.78
2023-04-23T05:17:16.442Z,13.73
2023-04-23T05:19:46.181Z,13.78
2023-04-23T05:22:15.983Z,13.83
2023-04-23T05:24:48.285Z,13.86
2023-04-23T05:27:18.027Z,13.82
2023-04-23T05:29:47.846Z,13.96
2023-04-23T05:32:17.857Z,13.99
2023-04-23T05:34:47.706Z,14.01
2023-04-23T05:37:17.436Z,13.79
2023-04-23T05:39:49.709Z,14.23
2023-04-23T05:42:19.423Z,14.14
2023-04-23T05:44:49.131Z,14.32
2023-04-23T05:47:18.883Z,14.40
2023-04-23T05:49:48.746Z,14.42
2023-04-23T05:52:18.678Z,14.39
2023-04-23T05:54:51.136Z,14.58
2023-04-23T05:57:21.162Z,14.50
2023-04-23T05:59:50.875Z,14.60
2023-04-23T06:02:23.235Z,14.63
2023-04-23T06:04:54.533Z,14.62
2023-04-23T06:07:24.507Z,14.70
2023-04-23T06:09:56.967Z,14.79
2023-04-23T06:12:26.714Z,14.75
2023-04-23T06:14:56.567Z,14.79
2023-04-23T06:17:26.356Z,14.65
2023-04-23T06:19:56.521Z,14.40
2023-04-23T06:22:26.255Z,14.54
2023-04-23T06:24:58.549Z,14.45
2023-04-23T06:27:28.333Z,14.57
2023-04-23T06:30:02.970Z,14.51
2023-04-23T06:32:32.724Z,14.76
2023-04-23T06:35:02.756Z,14.88
2023-04-23T06:37:33.563Z,14.97
2023-04-23T06:40:06.152Z,15.01
2023-04-23T06:42:35.985Z,15.12
2023-04-23T06:45:23.087Z,15.38
2023-04-23T06:47:55.022Z,15.38
2023-04-23T06:50:24.821Z,15.51
2023-04-23T06:52:56.460Z,15.32
2023-04-23T06:55:29.314Z,15.32
2023-04-23T06:57:59.414Z,15.08
2023-04-23T07:00:29.252Z,15.00
2023-04-23T07:02:59.472Z,15.19
2023-04-23T07:05:29.440Z,15.33
2023-04-23T07:07:59.184Z,15.08
2023-04-23T07:10:31.526Z,14.70
2023-04-23T07:13:01.749Z,14.95
2023-04-23T07:15:31.517Z,15.15
2023-04-23T07:18:01.286Z,15.11
2023-04-23T07:20:31.104Z,15.25
2023-04-23T07:23:01.279Z,15.65
2023-04-23T07:25:33.942Z,15.53
2023-04-23T07:28:04.225Z,15.44
2023-04-23T07:30:34.195Z,15.25
2023-04-23T07:33:03.994Z,15.26
2023-04-23T07:35:33.838Z,15.70
2023-04-23T07:38:04.414Z,15.99
2023-04-23T07:40:37.239Z,16.12
2023-04-23T07:43:07.016Z,15.99
2023-04-23T07:45:36.745Z,16.08
2023-04-23T07:48:06.716Z,16.08
2023-04-23T07:50:36.477Z,15.97
2023-04-23T07:53:06.501Z,16.20
2023-04-23T07:55:38.892Z,16.10
2023-04-23T07:58:08.640Z,16.20
2023-04-23T08:00:38.877Z,16.47
2023-04-23T08:03:08.722Z,16.54
2023-04-23T08:05:41.298Z,16.52
2023-04-23T08:08:11.305Z,16.53
2023-04-23T08:10:43.943Z,16.53
2023-04-23T08:13:13.974Z,16.58
2023-04-23T08:15:43.760Z,16.51
2023-04-23T08:18:13.519Z,16.58
2023-04-23T08:20:43.382Z,16.74
2023-04-23T08:23:13.604Z,17.00
2023-04-23T08:25:46.270Z,17.04
2023-04-23T08:28:16.669Z,17.06
2023-04-23T08:30:46.592Z,17.11
2023-04-23T08:33:16.694Z,17.31
2023-04-23T08:35:46.410Z,17.36
2023-04-23T08:38:16.276Z,17.43
2023-04-23T08:40:50.263Z,17.52
2023-04-23T08:43:22.754Z,17.61
2023-04-23T08:45:52.740Z,17.49
2023-04-23T08:48:22.717Z,17.74
2023-04-23T08:50:52.573Z,17.84
2023-04-23T08:53:24.029Z,17.88
2023-04-23T08:55:58.530Z,18.11
2023-04-23T08:58:28.558Z,18.00
2023-04-23T09:00:59.022Z,18.00
2023-04-23T09:03:29.130Z,18.09
2023-04-23T09:05:59.185Z,18.01
2023-04-23T09:08:29.230Z,18.03
2023-04-23T09:11:04.581Z,18.16
2023-04-23T09:13:34.793Z,18.09
2023-04-23T09:16:04.656Z,18.16
2023-04-23T09:18:34.744Z,18.25
2023-04-23T09:21:05.659Z,18.41
2023-04-23T09:23:38.609Z,18.62
2023-04-23T09:26:11.613Z,18.65
2023-04-23T09:28:42.643Z,18.66
2023-04-23T09:31:16.310Z,18.77
2023-04-23T09:33:47.256Z,18.70
2023-04-23T09:36:19.391Z,18.89
2023-04-23T09:38:51.375Z,18.94
2023-04-23T09:41:30.145Z,19.01
2023-04-23T09:44:01.234Z,18.99
2023-04-23T09:46:39.767Z,19.22
2023-04-23T09:49:15.858Z,19.28
2023-04-23T09:51:49.206Z,19.29
2023-04-23T09:54:23.921Z,19.12
2023-04-23T09:57:00.375Z,19.50
2023-04-23T09:59:46.623Z,19.53
2023-04-23T10:02:19.241Z,19.58
2023-04-23T10:05:03.412Z,19.52
2023-04-23T10:07:40.925Z,19.61
2023-04-23T10:10:12.113Z,19.64
2023-04-23T10:12:54.354Z,19.74
2023-04-23T10:15:28.220Z,19.92
2023-04-23T10:17:59.376Z,20.18
2023-04-23T10:20:29.259Z,20.45
2023-04-23T10:23:02.511Z,20.18
2023-04-23T10:25:32.891Z,20.25
2023-04-23T10:28:07.826Z,20.07
2023-04-23T10:30:40.020Z,20.09
2023-04-23T10:33:22.461Z,19.97
2023-04-23T10:35:59.673Z,20.16
2023-04-23T10:38:30.696Z,20.34
2023-04-23T10:41:03.197Z,20.43
2023-04-23T10:43:35.794Z,20.31
2023-04-23T10:46:05.674Z,20.16
2023-04-23T10:49:08.364Z,20.34
2023-04-23T10:54:12.875Z,20.43
2023-04-23T10:56:43.170Z,20.30
2023-04-23T10:59:24.330Z,20.10
2023-04-23T11:01:54.143Z,20.09
2023-04-23T11:04:25.949Z,20.03
2023-04-23T11:07:11.643Z,20.16
2023-04-23T11:09:44.686Z,20.07
2023-04-23T11:12:15.873Z,20.07
2023-04-23T11:14:50.274Z,19.98
2023-04-23T11:17:21.551Z,20.30
2023-04-23T11:20:14.168Z,20.13
2023-04-23T11:22:45.992Z,20.15
2023-04-23T11:25:17.862Z,20.42
2023-04-23T11:27:49.162Z,20.66
2023-04-23T11:30:24.806Z,20.73
2023-04-23T11:32:55.798Z,20.66
2023-04-23T11:35:28.754Z,20.73
2023-04-23T11:37:59.255Z,20.70
2023-04-23T11:40:31.238Z,20.66
2023-04-23T11:43:01.093Z,20.37
2023-04-23T11:45:33.484Z,20.54
2023-04-23T11:48:04.015Z,20.66
2023-04-23T11:50:35.743Z,20.47
2023-04-23T11:53:08.097Z,20.51
2023-04-23T11:55:38.336Z,20.38
2023-04-23T11:58:08.079Z,20.29
2023-04-23T12:00:40.429Z,20.10
2023-04-23T12:03:10.316Z,20.15
2023-04-23T12:05:48.165Z,20.04
2023-04-23T12:08:20.359Z,20.08
2023-04-23T12:10:52.805Z,20.02
2023-04-23T12:13:25.019Z,20.34
2023-04-23T12:15:59.269Z,20.14
2023-04-23T12:18:31.012Z,19.90
2023-04-23T12:21:08.141Z,19.98
2023-04-23T12:23:38.481Z,19.98
2023-04-23T12:26:13.870Z,20.18
2023-04-23T12:28:49.201Z,20.07
2023-04-23T12:31:26.056Z,20.20
2023-04-23T12:34:05.498Z,20.20
2023-04-23T12:36:35.969Z,20.17
2023-04-23T12:39:24.481Z,19.95
2023-04-23T12:41:56.800Z,19.59
2023-04-23T12:44:26.634Z,19.46
2023-04-23T12:47:04.977Z,19.60
2023-04-23T12:49:35.984Z,19.63
2023-04-23T12:52:07.413Z,19.97
2023-04-23T12:54:39.312Z,20.35
2023-04-23T12:57:10.697Z,20.72
2023-04-23T12:59:41.061Z,20.94
2023-04-23T13:02:13.918Z,21.05
2023-04-23T13:04:43.794Z,21.06
2023-04-23T13:07:14.110Z,21.18
2023-04-23T13:09:44.066Z,21.24
2023-04-23T13:12:14.079Z,21.13
2023-04-23T13:14:43.800Z,21.29
2023-04-23T13:17:16.131Z,21.34
2023-04-23T13:19:46.027Z,21.29
2023-04-23T13:22:15.798Z,21.32
2023-04-23T13:24:45.580Z,21.17
2023-04-23T13:27:15.313Z,21.14
2023-04-23T13:29:45.031Z,21.04
2023-04-23T13:32:17.405Z,20.99
2023-04-23T13:34:47.328Z,21.08
2023-04-23T13:37:17.194Z,21.20
2023-04-23T13:39:47.429Z,21.12
2023-04-23T13:42:17.380Z,21.15
2023-04-23T13:44:47.112Z,21.40
2023-04-23T13:47:19.448Z,21.42
2023-04-23T13:49:49.256Z,21.44
2023-04-23T13:52:18.979Z,21.26
2023-04-23T13:54:49.315Z,21.25
2023-04-23T13:57:19.088Z,20.93
2023-04-23T13:59:48.836Z,20.85
2023-04-23T14:02:21.195Z,21.03
2023-04-23T14:04:51.272Z,21.08
2023-04-23T14:07:21.202Z,21.44
2023-04-23T14:09:53.010Z,21.42
2023-04-23T14:12:24.188Z,21.01
2023-04-23T14:14:54.018Z,21.13
2023-04-23T14:17:26.366Z,20.98
2023-04-23T14:19:56.102Z,21.28
2023-04-23T14:22:26.313Z,21.38
2023-04-23T14:25:00.371Z,21.57
2023-04-23T14:27:30.787Z,21.55
2023-04-23T14:30:05.517Z,21.48
2023-04-23T14:32:40.416Z,21.42
2023-04-23T14:35:11.249Z,21.38
2023-04-23T14:37:43.311Z,21.47
2023-04-23T14:40:19.577Z,21.53
2023-04-23T14:42:50.498Z,21.75
2023-04-23T14:45:20.714Z,22.09
2023-04-23T14:47:53.151Z,22.09
2023-04-23T14:50:23.710Z,22.11
2023-04-23T14:52:53.808Z,21.85
2023-04-23T14:55:24.591Z,21.79
2023-04-23T14:57:54.399Z,21.84
2023-04-23T15:00:25.315Z,21.82
2023-04-23T15:02:57.911Z,22.71
2023-04-23T15:05:28.226Z,22.14
2023-04-23T15:07:57.964Z,21.79
2023-04-23T15:10:27.906Z,21.79
2023-04-23T15:13:04.290Z,21.82
2023-04-23T15:15:45.588Z,21.66
2023-04-23T15:18:18.390Z,21.82
2023-04-23T15:20:48.177Z,21.77
2023-04-23T15:23:20.975Z,21.85
2023-04-23T15:25:52.256Z,21.83
2023-04-23T15:28:22.020Z,21.80
2023-04-23T15:30:51.818Z,21.40
2023-04-23T15:33:24.110Z,21.49
2023-04-23T15:35:53.846Z,21.28
2023-04-23T15:38:23.614Z,21.27
2023-04-23T15:40:53.409Z,21.28
2023-04-23T15:43:23.135Z,21.07
2023-04-23T15:45:54.790Z,20.95
2023-04-23T15:48:27.493Z,21.16
2023-04-23T15:50:57.290Z,21.27
2023-04-23T15:53:27.105Z,21.26
2023-04-23T15:55:57.662Z,21.15
2023-04-23T15:58:27.423Z,21.12
2023-04-23T16:00:57.179Z,21.11
2023-04-23T16:03:29.673Z,21.16
2023-04-23T16:05:59.610Z,21.08
2023-04-23T16:08:29.325Z,21.16
2023-04-23T16:10:59.563Z,20.88
2023-04-23T16:13:29.463Z,20.40
2023-04-23T16:15:59.256Z,20.12
2023-04-23T16:18:31.950Z,19.87
2023-04-23T16:21:01.726Z,19.60
2023-04-23T16:23:31.843Z,19.69
2023-04-23T16:26:02.217Z,19.74
2023-04-23T16:28:31.966Z,19.95
2023-04-23T16:31:01.726Z,19.78
2023-04-23T16:33:34.072Z,19.76
2023-04-23T16:36:03.984Z,19.51
2023-04-23T16:38:33.876Z,19.38
2023-04-23T16:41:03.615Z,19.27
2023-04-23T16:43:33.437Z,19.22
2023-04-23T16:46:03.333Z,19.25
2023-04-23T16:48:35.747Z,19.30
2023-04-23T16:51:05.610Z,19.36
2023-04-23T16:53:35.740Z,19.27
2023-04-23T16:56:05.771Z,19.19
2023-04-23T16:58:36.172Z,19.12
2023-04-23T17:01:06.019Z,19.14
2023-04-23T17:03:39.484Z,19.21
2023-04-23T17:06:13.604Z,19.22
2023-04-23T17:08:43.489Z,19.23
2023-04-23T17:11:13.344Z,19.15
2023-04-23T17:13:43.765Z,18.91
2023-04-23T17:16:13.913Z,19.16
2023-04-23T17:18:46.354Z,19.18
2023-04-23T17:21:16.211Z,18.95
2023-04-23T17:23:46.062Z,18.74
2023-04-23T17:26:16.236Z,18.83
2023-04-23T17:28:46.295Z,18.75
2023-04-23T17:31:16.484Z,18.76
2023-04-23T17:33:49.638Z,18.86
2023-04-23T17:36:19.718Z,18.78
2023-04-23T17:38:49.412Z,18.65
2023-04-23T17:41:19.806Z,18.62
2023-04-23T17:43:49.506Z,18.66
2023-04-23T17:46:19.577Z,18.64
2023-04-23T17:48:52.175Z,18.52
2023-04-23T17:51:22.250Z,18.53
2023-04-23T17:53:52.389Z,18.41
2023-04-23T17:56:22.355Z,18.48
2023-04-23T17:58:52.105Z,18.48
2023-04-23T18:01:22.039Z,18.49
2023-04-23T18:03:55.085Z,18.54
2023-04-23T18:06:25.578Z,18.49
2023-04-23T18:08:55.434Z,18.51
2023-04-23T18:11:25.197Z,18.55
2023-04-23T18:13:55.816Z,18.55
2023-04-23T18:16:25.662Z,18.60
2023-04-23T18:18:58.181Z,18.58
2023-04-23T18:21:29.454Z,18.52
2023-04-23T18:23:59.342Z,18.40
2023-04-23T18:26:29.308Z,18.40
2023-04-23T18:28:59.106Z,18.34
2023-04-23T18:31:28.904Z,18.18
2023-04-23T18:34:04.780Z,18.42
2023-04-23T18:36:36.280Z,18.32
2023-04-23T18:39:07.587Z,18.28
2023-04-23T18:41:37.658Z,18.25
2023-04-23T18:44:07.706Z,18.24
2023-04-23T18:46:37.538Z,18.07
2023-04-23T18:49:51.301Z,17.98
2023-04-23T18:52:21.052Z,18.18
2023-04-23T18:54:50.966Z,18.14
2023-04-23T18:57:21.267Z,18.29
2023-04-23T18:59:51.320Z,18.24
2023-04-23T19:02:34.445Z,18.23
2023-04-23T19:05:08.745Z,18.13
2023-04-23T19:07:40.671Z,18.07
2023-04-23T19:10:12.115Z,17.99
2023-04-23T19:12:41.993Z,18.01
2023-04-23T19:15:14.417Z,17.60
2023-04-23T19:17:44.369Z,17.73
2023-04-23T19:20:18.753Z,17.68
2023-04-23T19:22:48.497Z,17.83
2023-04-23T19:25:18.448Z,17.86
2023-04-23T19:27:48.182Z,17.75
2023-04-23T19:30:18.173Z,17.75
2023-04-23T19:32:48.115Z,17.80
2023-04-23T19:35:20.730Z,17.73
2023-04-23T19:37:51.172Z,17.93
2023-04-23T19:40:21.061Z,17.84
2023-04-23T19:42:50.985Z,17.88
2023-04-23T19:45:20.864Z,17.68
2023-04-23T19:47:51.023Z,17.50
2023-04-23T19:50:23.747Z,17.78
2023-04-23T19:52:53.796Z,17.68
2023-04-23T19:55:27.282Z,17.76
2023-04-23T19:57:58.623Z,17.76
2023-04-23T20:00:31.396Z,17.76
2023-04-23T20:03:01.304Z,17.59
2023-04-23T20:05:34.053Z,17.54
2023-04-23T20:08:07.039Z,17.16
2023-04-23T20:10:36.972Z,17.46
2023-04-23T20:13:06.723Z,17.44
2023-04-23T20:15:36.878Z,17.42
2023-04-23T20:18:06.880Z,17.16
2023-04-23T20:20:40.107Z,16.68
2023-04-23T20:23:09.895Z,15.97
2023-04-23T20:25:39.952Z,15.70
2023-04-23T20:28:09.802Z,15.60
2023-04-23T20:30:39.959Z,15.40
2023-04-23T20:33:10.613Z,15.27
2023-04-23T20:35:44.711Z,15.01
2023-04-23T20:38:19.471Z,14.87
2023-04-23T20:40:50.303Z,15.38
2023-04-23T20:43:20.126Z,15.54
2023-04-23T20:45:49.914Z,15.68
2023-04-23T20:48:20.081Z,15.61
2023-04-23T20:50:52.519Z,15.47
2023-04-23T20:53:22.441Z,15.54
2023-04-23T20:55:52.318Z,15.42
2023-04-23T20:58:22.053Z,15.61
2023-04-23T21:00:51.856Z,15.76
2023-04-23T21:03:21.871Z,15.89
2023-04-23T21:05:54.338Z,15.98
2023-04-23T21:08:24.063Z,15.98
2023-04-23T21:10:54.053Z,16.12
2023-04-23T21:13:23.868Z,16.13
2023-04-23T21:15:53.739Z,16.12
2023-04-23T21:18:23.745Z,16.29
2023-04-23T21:20:56.391Z,15.93
2023-04-23T21:23:26.326Z,16.15
2023-04-23T21:25:56.149Z,16.00
2023-04-23T21:28:26.217Z,15.87
2023-04-23T21:30:58.408Z,15.81
2023-04-23T21:33:28.458Z,15.75
2023-04-23T21:36:00.781Z,15.79
2023-04-23T21:38:30.489Z,15.77
2023-04-23T21:41:00.236Z,15.80
2023-04-23T21:43:35.556Z,15.85
2023-04-23T21:46:05.547Z,15.81
2023-04-23T21:48:35.685Z,15.80
2023-04-23T21:51:08.353Z,15.86
2023-04-23T21:53:38.141Z,15.86
2023-04-23T21:56:08.584Z,15.65
2023-04-23T21:58:38.484Z,15.86
2023-04-23T22:01:08.809Z,15.67
2023-04-23T22:03:42.570Z,15.41
2023-04-23T22:06:15.812Z,15.45
2023-04-23T22:08:46.412Z,15.30
2023-04-23T22:11:17.537Z,14.88
2023-04-23T22:13:47.504Z,14.54
2023-04-23T22:16:28.045Z,14.17
2023-04-23T22:18:58.694Z,13.93
2023-04-23T22:21:31.575Z,14.26
2023-04-23T22:24:03.496Z,14.15
2023-04-23T22:26:34.109Z,14.07
2023-04-23T22:29:03.920Z,14.28
2023-04-23T22:31:34.367Z,14.06
2023-04-23T22:34:04.149Z,14.21
2023-04-23T22:36:36.685Z,14.15
2023-04-23T22:39:06.798Z,14.15
2023-04-23T22:41:38.898Z,13.86
2023-04-23T22:44:09.479Z,13.98
2023-04-23T22:46:39.418Z,13.75
2023-04-23T22:49:11.380Z,14.00
2023-04-23T22:51:44.005Z,14.22
2023-04-23T22:54:13.725Z,14.07
2023-04-23T22:56:43.747Z,13.94
2023-04-23T22:59:14.269Z,14.14
2023-04-23T23:01:44.288Z,14.22
2023-04-23T23:04:14.438Z,14.53
2023-04-23T23:06:46.824Z,14.46
2023-04-23T23:09:16.626Z,14.54
2023-04-23T23:11:46.364Z,14.47
2023-04-23T23:14:16.993Z,14.46
2023-04-23T23:16:46.735Z,14.33
2023-04-23T23:19:16.638Z,14.14
2023-04-23T23:21:48.980Z,14.22
2023-04-23T23:24:19.228Z,14.10
2023-04-23T23:26:49.407Z,14.11
2023-04-23T23:29:19.494Z,14.15
2023-04-23T23:31:49.808Z,14.02
2023-04-23T23:34:19.556Z,13.78
2023-04-23T23:36:52.100Z,13.91
2023-04-23T23:39:22.007Z,13.94
2023-04-23T23:41:51.731Z,13.72
2023-04-23T23:44:21.513Z,13.69
2023-04-23T23:46:52.187Z,13.83
2023-04-23T23:49:22.552Z,13.81
2023-04-23T23:51:55.001Z,13.98
2023-04-23T23:54:24.707Z,13.90
2023-04-23T23:56:55.793Z,14.00
2023-04-23T23:59:25.999Z,14.02
